Impacts TAF Board
For situational awareness. Not to be used for flight planning purposes.
IDs:

KSTL - St Louis/Lambert Int, MO, US

Issued at 2340 UTC 23 May 2019
Updated at 0052 UTC 24 May 2019
Potential Impact None Slight Moderate High
Time2351Z 24/01Z 24/02Z 24/03Z 24/04Z 24/05Z 24/06Z 24/07Z 24/08Z 24/09Z 24/10Z 24/11Z 24/12Z 24/13Z>>
Type OBS PRVL PRVL PRVL PRVL PRVL PRVL PRVL PRVL PRVL PRVL PRVL PRVL PRVL
VIS 10 >6 >6 >6 >6 >6 >6 >6 >6 >6 >6 >6 >6 >6
CIG 250 250 250 40 40 40 40 40 40 -- -- -- -- --
Cover BKN BKN BKN BKN BKN BKN BKN BKN BKN SCT SCT SCT SCT SCT
FltCat VFR VFR VFR VFR VFR VFR VFR VFR VFR VFR VFR VFR VFR VFR
WX -- -- -- -- -- -- -- -- -- -- -- -- -- --
WDir 20 VRB VRB 90 90 90 90 90 90 170 170 170 170 170
WSpd 3 4 4 6 6 6 6 6 6 7 7 7 7 7
WGst -- -- -- -- -- -- -- -- -- -- -- -- -- --
Raw TAF
KSTL 232340Z 2400/2506 VRB04KT P6SM SCT050 BKN250
  FM240300 09006KT P6SM BKN040
  FM240900 17007KT P6SM SCT250
  FM241500 21011G19KT P6SM SCT040 BKN250


Raw METAR
KSTL 232351Z 02003KT 10SM FEW060 BKN250 27/18 A3006 RMK AO2 SLP168 T02670178 10278 20233 58013
KSTL 232251Z 00000KT 10SM FEW030 SCT250 27/18 A3007 RMK AO2 SLP172 T02670178
KSTL 232151Z 29005KT 10SM SCT060 BKN130 BKN250 27/18 A3008 RMK AO2 SLP177 T02670183

METAR Board
Radar Display
Forecast Discussion
For situational awareness. Not to be used for flight planning purposes.